Time;durP1;ratioP1;P1;durP2;ratioP2;P2;SDS_P1;SDS_P2;PMS_P1;PMS_P2;Temp;Humidity;BMP_temperature;BMP_pressure;BME280_temperature;BME280_humidity;BME280_pressure;Samples;Min_cycle;Max_cycle;Signal;HPM_P1;HPM_P2
2022/04/11 00:02:26;;;;;;;4.13;1.60;;;1.90;99.90;;;;;;5049718;28;20511;-83
2022/04/11 00:04:52;;;;;;;2.93;2.00;;;1.90;99.90;;;;;;5055828;28;20045;-83
2022/04/11 00:07:18;;;;;;;7.20;2.03;;;1.80;99.90;;;;;;5016960;28;20041;-84
2022/04/11 00:09:44;;;;;;;4.43;1.90;;;1.90;99.90;;;;;;5019535;28;20067;-83
2022/04/11 00:12:10;;;;;;;4.40;1.70;;;1.90;99.90;;;;;;5027891;28;20049;-83
2022/04/11 00:14:36;;;;;;;3.87;1.80;;;1.80;99.90;;;;;;5027918;28;20060;-83
2022/04/11 00:17:03;;;;;;;6.67;1.83;;;1.80;99.90;;;;;;5018425;28;20041;-83
2022/04/11 00:19:28;;;;;;;4.13;1.90;;;1.80;99.90;;;;;;4993232;28;20048;-83
2022/04/11 00:21:54;;;;;;;3.67;2.23;;;1.80;99.90;;;;;;5019529;28;20046;-83
2022/04/11 00:24:20;;;;;;;4.23;2.20;;;1.80;99.90;;;;;;5021274;28;20423;-84
2022/04/11 00:26:46;;;;;;;9.63;2.30;;;1.80;99.90;;;;;;5012613;28;20053;-83
2022/04/11 00:29:12;;;;;;;5.03;1.80;;;1.80;99.90;;;;;;5019429;28;20067;-84
2022/04/11 00:31:37;;;;;;;5.27;1.90;;;1.80;99.90;;;;;;5023639;28;20105;-83
2022/04/11 00:34:03;;;;;;;3.97;1.70;;;1.70;99.90;;;;;;5038975;28;20088;-83
2022/04/11 00:36:29;;;;;;;5.63;2.20;;;1.70;99.90;;;;;;5004702;28;20045;-83
2022/04/11 00:38:54;;;;;;;4.13;2.00;;;1.60;99.90;;;;;;4999784;28;20045;-83
2022/04/11 00:41:20;;;;;;;6.37;1.80;;;1.60;99.90;;;;;;5035370;28;20052;-82
2022/04/11 00:43:46;;;;;;;4.23;1.80;;;1.60;99.90;;;;;;5033138;28;20073;-82
2022/04/11 00:46:11;;;;;;;4.83;2.10;;;1.60;99.90;;;;;;5020068;28;20110;-82
2022/04/11 00:48:38;;;;;;;3.63;1.80;;;1.60;99.90;;;;;;5036437;28;20139;-83
2022/04/11 00:51:15;;;;;;;4.67;2.03;;;1.60;99.90;;;;;;5016232;28;20073;-84
2022/04/11 00:53:44;;;;;;;3.70;2.00;;;1.60;99.90;;;;;;5057796;28;20329;-83
2022/04/11 00:56:15;;;;;;;3.73;1.83;;;1.60;99.90;;;;;;5057439;28;20061;-83
2022/04/11 00:58:41;;;;;;;4.57;2.20;;;1.60;99.90;;;;;;5029627;28;20041;-82
2022/04/11 01:01:08;;;;;;;3.90;2.10;;;1.60;99.90;;;;;;5042174;28;20076;-84
2022/04/11 01:03:34;;;;;;;6.80;2.10;;;1.60;99.90;;;;;;5041962;28;20355;-82
2022/04/11 01:06:00;;;;;;;4.73;2.23;;;1.60;99.90;;;;;;5038363;28;20056;-83
2022/04/11 01:08:27;;;;;;;3.33;1.90;;;1.60;99.90;;;;;;5037520;28;20082;-83
2022/04/11 01:10:53;;;;;;;5.77;2.00;;;1.60;99.90;;;;;;5033497;28;20163;-82
2022/04/11 01:13:19;;;;;;;2.13;1.80;;;1.60;99.90;;;;;;5025889;28;20413;-82
2022/04/11 01:15:54;;;;;;;4.57;2.13;;;1.50;99.90;;;;;;5021857;28;20043;-83
2022/04/11 01:18:19;;;;;;;5.77;2.00;;;1.50;99.90;;;;;;5041403;28;20036;-83
2022/04/11 01:20:45;;;;;;;4.97;2.20;;;1.50;99.90;;;;;;5019837;28;20864;-83
2022/04/11 01:23:11;;;;;;;2.73;2.00;;;1.40;99.90;;;;;;5025196;28;20049;-83
2022/04/11 01:25:39;;;;;;;3.57;2.43;;;1.50;99.90;;;;;;5025085;28;20104;-83
2022/04/11 01:28:05;;;;;;;2.90;1.83;;;1.50;99.90;;;;;;5019840;28;20044;-83
2022/04/11 01:30:31;;;;;;;4.80;2.43;;;1.50;99.90;;;;;;5040816;28;20678;-82
2022/04/11 01:32:56;;;;;;;4.60;2.53;;;1.50;99.90;;;;;;5041227;28;20338;-82
2022/04/11 01:35:25;;;;;;;5.33;2.17;;;1.60;99.90;;;;;;5057868;28;20099;-82
2022/04/11 01:37:51;;;;;;;2.33;2.03;;;1.50;99.90;;;;;;5041786;28;20451;-83
2022/04/11 01:40:17;;;;;;;4.37;2.23;;;1.50;99.90;;;;;;5038875;28;20374;-83
2022/04/11 01:42:43;;;;;;;3.97;2.07;;;1.50;99.90;;;;;;5010289;28;20912;-83
2022/04/11 01:45:11;;;;;;;5.17;2.47;;;1.40;99.90;;;;;;5024688;28;20517;-83
2022/04/11 01:47:38;;;;;;;5.13;2.60;;;1.40;99.90;;;;;;5039331;28;20049;-82
2022/04/11 01:50:05;;;;;;;4.70;2.37;;;1.40;99.90;;;;;;5050712;28;20318;-82
2022/04/11 01:52:31;;;;;;;3.37;2.30;;;1.40;99.90;;;;;;5015429;28;20057;-82
2022/04/11 01:54:56;;;;;;;3.70;2.50;;;1.40;99.90;;;;;;5025335;28;20407;-82
2022/04/11 01:57:22;;;;;;;3.67;2.17;;;1.40;99.90;;;;;;5076003;28;20048;-82
2022/04/11 01:59:48;;;;;;;6.97;2.10;;;1.40;99.90;;;;;;5048525;28;20099;-83
2022/04/11 02:02:14;;;;;;;5.97;2.27;;;1.40;99.90;;;;;;5024332;28;20074;-82
2022/04/11 02:04:39;;;;;;;3.40;2.10;;;1.30;99.90;;;;;;5025439;28;20121;-83
2022/04/11 02:07:06;;;;;;;5.67;2.40;;;1.30;99.90;;;;;;5024450;28;20052;-83
2022/04/11 02:09:31;;;;;;;3.40;2.30;;;1.30;99.90;;;;;;5041212;28;20112;-84
2022/04/11 02:11:57;;;;;;;6.33;2.60;;;1.30;99.90;;;;;;5004190;28;20397;-82
2022/04/11 02:14:23;;;;;;;3.90;2.07;;;1.20;99.90;;;;;;5010611;28;20451;-83
2022/04/11 02:16:48;;;;;;;4.00;2.30;;;1.20;99.90;;;;;;5025338;28;20127;-83
2022/04/11 02:19:14;;;;;;;4.13;2.50;;;1.20;99.90;;;;;;5056996;28;20056;-83
2022/04/11 02:21:40;;;;;;;3.63;2.00;;;1.20;99.90;;;;;;5076656;28;20044;-83
2022/04/11 02:24:06;;;;;;;4.87;2.20;;;1.30;99.90;;;;;;5004419;28;20091;-83
2022/04/11 02:26:32;;;;;;;3.70;2.33;;;1.20;99.90;;;;;;5025241;28;20092;-82
2022/04/11 02:28:57;;;;;;;3.10;2.20;;;1.20;99.90;;;;;;5075543;28;20334;-82
2022/04/11 02:31:23;;;;;;;5.63;2.27;;;1.20;99.90;;;;;;5050340;28;20586;-82
2022/04/11 02:33:49;;;;;;;4.67;2.07;;;1.20;99.90;;;;;;5034034;28;20037;-82
2022/04/11 02:36:14;;;;;;;5.77;2.20;;;1.30;99.90;;;;;;5041761;28;20045;-82
2022/04/11 02:38:40;;;;;;;3.67;2.13;;;1.20;99.90;;;;;;5044895;28;20075;-82
2022/04/11 02:41:06;;;;;;;4.00;2.10;;;1.30;99.90;;;;;;5017790;28;20127;-82
2022/04/11 02:43:31;;;;;;;3.00;2.00;;;1.20;99.90;;;;;;5061527;28;20052;-83
2022/04/11 02:45:57;;;;;;;4.93;2.20;;;1.20;99.90;;;;;;5008314;28;20377;-83
2022/04/11 02:48:23;;;;;;;5.00;2.37;;;1.20;99.90;;;;;;5027751;28;20055;-83
2022/04/11 02:50:49;;;;;;;5.67;2.30;;;1.20;99.90;;;;;;5027909;28;20033;-83
2022/04/11 02:53:14;;;;;;;2.43;2.10;;;1.20;99.90;;;;;;5026068;28;20044;-83
2022/04/11 02:55:40;;;;;;;3.30;2.00;;;1.30;99.90;;;;;;5027141;28;20048;-83
2022/04/11 02:58:06;;;;;;;5.33;2.33;;;1.30;99.90;;;;;;5027512;28;20100;-82
2022/04/11 03:00:32;;;;;;;4.53;2.10;;;1.30;99.90;;;;;;5026439;28;20049;-82
2022/04/11 03:02:57;;;;;;;4.20;2.60;;;1.30;99.90;;;;;;5042328;28;20037;-82
2022/04/11 03:05:23;;;;;;;4.20;2.70;;;1.20;99.90;;;;;;5024793;28;20512;-82
2022/04/11 03:07:49;;;;;;;4.47;2.27;;;1.20;99.90;;;;;;5027488;28;20040;-83
2022/04/11 03:10:15;;;;;;;3.87;2.33;;;1.20;99.90;;;;;;5024188;28;20412;-82
2022/04/11 03:12:40;;;;;;;6.57;2.43;;;1.10;99.90;;;;;;5012900;28;20039;-82
2022/04/11 03:15:07;;;;;;;5.60;2.80;;;1.10;99.90;;;;;;5059497;28;20049;-83
2022/04/11 03:17:33;;;;;;;6.73;2.30;;;1.10;99.90;;;;;;5027322;28;20045;-83
2022/04/11 03:19:58;;;;;;;4.70;2.27;;;1.10;99.90;;;;;;5025358;28;20307;-83
2022/04/11 03:22:24;;;;;;;3.33;2.37;;;1.10;99.90;;;;;;5028070;28;20044;-83
2022/04/11 03:24:50;;;;;;;4.80;2.50;;;1.10;99.90;;;;;;5007689;28;20048;-83
2022/04/11 03:27:15;;;;;;;4.57;2.50;;;1.00;99.90;;;;;;5027111;28;20028;-82
2022/04/11 03:29:41;;;;;;;3.77;2.17;;;1.00;99.90;;;;;;5060454;28;20036;-83
2022/04/11 03:32:07;;;;;;;3.60;2.30;;;1.10;99.90;;;;;;5023925;28;20901;-84
2022/04/11 03:34:33;;;;;;;6.17;2.63;;;1.10;99.90;;;;;;5027353;28;20055;-83
2022/04/11 03:36:58;;;;;;;4.60;2.30;;;1.00;99.90;;;;;;5026597;28;20294;-84
2022/04/11 03:39:24;;;;;;;4.87;2.63;;;1.00;99.90;;;;;;5010104;28;20044;-83
2022/04/11 03:41:50;;;;;;;5.40;2.87;;;1.00;99.90;;;;;;5007741;28;20098;-84
2022/04/11 03:44:16;;;;;;;7.17;2.50;;;1.00;99.90;;;;;;5026837;28;20123;-82
2022/04/11 03:46:42;;;;;;;3.80;2.77;;;1.00;99.90;;;;;;5025529;28;20048;-82
2022/04/11 03:49:07;;;;;;;3.90;2.30;;;1.00;99.90;;;;;;5025861;28;20051;-83
2022/04/11 03:51:33;;;;;;;6.23;2.90;;;1.00;99.90;;;;;;5043417;28;20751;-83
2022/04/11 03:54:00;;;;;;;5.70;2.63;;;1.10;99.90;;;;;;5041857;28;20104;-83
2022/04/11 03:56:25;;;;;;;6.60;2.90;;;1.00;99.90;;;;;;5037427;28;21040;-83
2022/04/11 03:58:51;;;;;;;4.20;2.60;;;1.10;99.90;;;;;;5041720;28;20291;-82
2022/04/11 04:01:17;;;;;;;6.17;2.93;;;1.10;99.90;;;;;;5025681;28;20045;-82
2022/04/11 04:03:43;;;;;;;7.20;2.90;;;1.20;99.90;;;;;;5026137;28;20304;-83
2022/04/11 04:06:09;;;;;;;5.93;2.90;;;1.20;99.90;;;;;;5023062;28;20057;-83
2022/04/11 04:08:35;;;;;;;4.53;2.60;;;1.20;99.90;;;;;;5041831;28;20044;-83
2022/04/11 04:11:01;;;;;;;4.73;2.80;;;1.20;99.90;;;;;;5042781;28;20526;-84
2022/04/11 04:13:27;;;;;;;6.10;3.07;;;1.30;99.90;;;;;;5013136;28;20319;-84
2022/04/11 04:15:53;;;;;;;4.30;3.10;;;1.30;99.90;;;;;;5025550;28;20129;-85
2022/04/11 04:18:18;;;;;;;5.47;3.00;;;1.30;99.90;;;;;;5021290;28;20056;-83
2022/04/11 04:20:44;;;;;;;5.17;2.93;;;1.40;99.90;;;;;;5052450;28;20484;-83
2022/04/11 04:23:10;;;;;;;5.23;2.77;;;1.40;99.90;;;;;;5009639;28;20129;-83
2022/04/11 04:25:36;;;;;;;4.40;2.87;;;1.40;99.90;;;;;;5026391;28;20044;-82
2022/04/11 04:28:03;;;;;;;4.80;2.80;;;1.40;99.90;;;;;;5016257;28;20120;-84
2022/04/11 04:30:29;;;;;;;6.97;2.53;;;1.50;99.90;;;;;;5035992;28;21003;-83
2022/04/11 04:32:58;;;;;;;4.53;2.90;;;1.40;99.90;;;;;;5041264;28;20355;-83
2022/04/11 04:35:24;;;;;;;4.33;2.80;;;1.50;99.90;;;;;;5059313;28;20313;-84
2022/04/11 04:37:52;;;;;;;4.83;2.40;;;1.50;99.90;;;;;;5042022;28;20279;-84
2022/04/11 04:40:18;;;;;;;5.03;2.87;;;1.50;99.90;;;;;;5011210;28;20282;-83
2022/04/11 04:42:43;;;;;;;5.23;2.90;;;1.60;99.90;;;;;;5042255;28;20299;-83
2022/04/11 04:45:09;;;;;;;4.67;2.50;;;1.60;99.90;;;;;;5076429;28;20052;-80
2022/04/11 04:47:35;;;;;;;3.57;2.87;;;1.60;99.90;;;;;;5042859;28;20044;-84
2022/04/11 04:50:01;;;;;;;5.10;2.80;;;1.60;99.90;;;;;;5041100;28;20048;-82
2022/04/11 04:52:27;;;;;;;3.93;2.30;;;1.60;99.90;;;;;;5029754;28;20052;-81
2022/04/11 04:54:53;;;;;;;3.23;2.20;;;1.60;99.90;;;;;;5019590;28;20635;-82
2022/04/11 04:57:18;;;;;;;6.00;2.47;;;1.60;99.90;;;;;;4983537;28;20101;-82
2022/04/11 04:59:44;;;;;;;3.00;2.00;;;1.70;99.90;;;;;;5039493;28;20048;-81
2022/04/11 05:02:10;;;;;;;4.03;2.00;;;1.70;99.90;;;;;;5023705;28;20053;-82
2022/04/11 05:04:36;;;;;;;3.47;2.03;;;1.70;99.90;;;;;;5021621;28;20040;-82
2022/04/11 05:07:02;;;;;;;4.47;2.20;;;1.60;99.90;;;;;;5020579;28;20118;-82
2022/04/11 05:09:28;;;;;;;7.93;2.53;;;1.70;99.90;;;;;;5034691;28;20038;-83
2022/04/11 05:11:53;;;;;;;3.30;1.93;;;1.70;99.90;;;;;;5000526;28;20298;-82
2022/04/11 05:14:19;;;;;;;4.00;1.90;;;1.70;99.90;;;;;;4989950;28;20059;-82
2022/04/11 05:16:45;;;;;;;3.10;2.10;;;1.70;99.90;;;;;;5022749;28;20571;-83
2022/04/11 05:19:10;;;;;;;4.30;2.70;;;1.70;99.90;;;;;;5001346;28;20038;-82
2022/04/11 05:21:36;;;;;;;4.77;2.40;;;1.80;99.90;;;;;;4989859;28;20040;-83
2022/04/11 05:24:02;;;;;;;4.20;2.53;;;1.80;99.90;;;;;;5021144;28;20040;-81
2022/04/11 05:26:28;;;;;;;3.93;2.20;;;1.90;99.90;;;;;;5005314;28;20041;-82
2022/04/11 05:28:53;;;;;;;3.83;2.53;;;1.90;99.90;;;;;;5021271;28;20072;-82
2022/04/11 05:31:19;;;;;;;6.20;2.47;;;2.00;99.90;;;;;;5019590;28;20090;-81
2022/04/11 05:33:46;;;;;;;5.47;2.50;;;2.00;99.90;;;;;;5007035;28;20053;-81
2022/04/11 05:36:12;;;;;;;5.53;3.43;;;2.00;99.90;;;;;;5008241;28;20091;-81
2022/04/11 05:38:37;;;;;;;4.53;3.13;;;2.10;99.90;;;;;;5021979;28;20311;-86
2022/04/11 05:41:04;;;;;;;6.50;3.37;;;2.10;99.90;;;;;;5035353;28;20123;-82
2022/04/11 05:43:30;;;;;;;6.50;4.07;;;2.20;99.90;;;;;;5014283;28;20042;-82
2022/04/11 05:45:56;;;;;;;6.10;3.80;;;2.20;99.90;;;;;;5013454;28;20309;-78
2022/04/11 05:48:22;;;;;;;7.93;3.20;;;2.30;99.90;;;;;;5008483;28;20387;-79
2022/04/11 05:50:47;;;;;;;5.20;3.67;;;2.40;99.90;;;;;;5036497;28;20217;-79
2022/04/11 05:53:13;;;;;;;9.80;4.67;;;2.50;99.90;;;;;;5011791;28;20130;-79
2022/04/11 05:55:39;;;;;;;10.53;4.77;;;2.50;99.90;;;;;;4998914;28;20045;-80
2022/04/11 05:58:04;;;;;;;8.17;4.30;;;2.50;99.90;;;;;;5033965;28;20110;-79
2022/04/11 06:00:30;;;;;;;7.23;3.93;;;2.50;99.90;;;;;;5014696;28;20095;-79
2022/04/11 06:02:56;;;;;;;6.83;3.90;;;2.50;99.90;;;;;;5018104;28;20036;-79
2022/04/11 06:05:22;;;;;;;10.43;5.23;;;2.60;99.90;;;;;;5020554;28;20034;-80
2022/04/11 06:07:48;;;;;;;8.67;4.93;;;2.60;99.90;;;;;;5040887;28;20044;-79
2022/04/11 06:10:13;;;;;;;8.03;5.30;;;2.70;99.90;;;;;;5023910;28;20057;-79
2022/04/11 06:12:39;;;;;;;7.13;4.73;;;2.70;99.90;;;;;;5022532;28;20184;-79
2022/04/11 06:15:06;;;;;;;9.83;5.27;;;2.70;99.90;;;;;;5036519;28;20246;-80
2022/04/11 06:17:32;;;;;;;7.63;5.20;;;2.80;99.90;;;;;;5036978;28;20119;-80
2022/04/11 06:19:59;;;;;;;8.40;5.10;;;2.80;99.90;;;;;;5030131;28;20072;-79
2022/04/11 06:22:26;;;;;;;8.10;5.47;;;2.90;99.90;;;;;;5034810;28;20050;-79
2022/04/11 06:25:03;;;;;;;11.10;5.17;;;2.90;99.90;;;;;;5045715;28;20120;-79
2022/04/11 06:27:28;;;;;;;9.37;4.87;;;3.00;99.90;;;;;;5039693;28;20292;-80
2022/04/11 06:29:57;;;;;;;8.53;5.20;;;3.00;99.90;;;;;;5026986;28;20056;-77
2022/04/11 06:32:27;;;;;;;10.13;5.17;;;3.10;99.90;;;;;;5028708;28;20314;-79
2022/04/11 06:34:53;;;;;;;9.87;5.73;;;3.10;99.90;;;;;;5035354;28;20303;-80
2022/04/11 06:37:19;;;;;;;10.90;5.63;;;3.20;99.90;;;;;;5014880;28;20524;-80
2022/04/11 06:39:45;;;;;;;8.67;5.60;;;3.20;99.90;;;;;;5036572;28;20352;-78
2022/04/11 06:42:11;;;;;;;9.73;5.80;;;3.20;99.90;;;;;;5049373;28;20279;-79
2022/04/11 06:44:38;;;;;;;12.57;5.43;;;3.30;99.90;;;;;;5018076;28;20340;-77
2022/04/11 06:47:04;;;;;;;8.77;5.50;;;3.30;99.90;;;;;;5037764;28;20124;-76
2022/04/11 06:49:30;;;;;;;8.03;5.30;;;3.40;99.90;;;;;;5022232;28;20342;-80
2022/04/11 06:51:56;;;;;;;7.90;5.43;;;3.40;99.90;;;;;;5023527;28;20108;-79
2022/04/11 06:54:22;;;;;;;9.10;5.43;;;3.40;99.90;;;;;;5034566;28;20052;-78
2022/04/11 06:56:47;;;;;;;8.97;5.87;;;3.50;99.90;;;;;;5017174;28;20033;-78
2022/04/11 06:59:15;;;;;;;7.47;5.60;;;3.50;99.90;;;;;;5002956;28;20140;-79
2022/04/11 07:01:41;;;;;;;11.60;6.53;;;3.60;99.90;;;;;;5032038;28;20056;-79
2022/04/11 07:04:07;;;;;;;8.83;5.70;;;3.70;99.90;;;;;;5047586;28;20057;-79
2022/04/11 07:06:32;;;;;;;8.93;6.30;;;3.80;99.90;;;;;;5032481;28;20043;-78
2022/04/11 07:08:58;;;;;;;7.70;5.90;;;3.90;99.90;;;;;;5033945;28;20044;-77
2022/04/11 07:11:24;;;;;;;10.37;6.40;;;3.90;99.90;;;;;;5001120;28;20044;-78
2022/04/11 07:13:50;;;;;;;9.63;5.87;;;4.00;99.90;;;;;;5001215;28;20069;-78
2022/04/11 07:16:15;;;;;;;8.73;5.57;;;4.10;99.90;;;;;;5015670;28;20058;-79
2022/04/11 07:18:41;;;;;;;7.93;5.40;;;4.20;99.90;;;;;;4998796;28;20289;-79
2022/04/11 07:21:07;;;;;;;7.60;5.80;;;4.20;99.90;;;;;;5033038;28;20050;-79
2022/04/11 07:23:33;;;;;;;10.43;6.23;;;4.30;99.90;;;;;;5038755;28;20172;-79
2022/04/11 07:25:58;;;;;;;9.53;6.60;;;4.40;99.90;;;;;;5003184;28;20069;-79
2022/04/11 07:28:24;;;;;;;11.10;6.33;;;4.50;99.90;;;;;;5017595;28;20048;-79
2022/04/11 07:30:50;;;;;;;11.13;6.40;;;4.60;99.90;;;;;;5031723;28;20135;-79
2022/04/11 07:33:16;;;;;;;9.50;5.87;;;4.60;99.90;;;;;;5033743;28;20037;-79
2022/04/11 07:35:41;;;;;;;7.20;6.23;;;4.70;99.90;;;;;;4997971;28;20100;-87
2022/04/11 07:38:07;;;;;;;9.57;6.57;;;4.80;99.90;;;;;;5016676;28;20094;-81
2022/04/11 07:40:33;;;;;;;10.03;6.13;;;4.90;99.90;;;;;;5032516;28;20598;-81
2022/04/11 07:42:58;;;;;;;8.87;6.70;;;5.00;99.90;;;;;;5051078;28;20045;-81
2022/04/11 07:45:24;;;;;;;11.23;6.80;;;5.00;99.90;;;;;;5016225;28;20052;-81
2022/04/11 07:47:50;;;;;;;11.30;6.87;;;5.10;99.90;;;;;;5001104;28;20644;-81
2022/04/11 07:50:16;;;;;;;9.57;6.43;;;5.20;99.90;;;;;;5031551;28;20045;-80
2022/04/11 07:52:43;;;;;;;11.50;6.70;;;5.30;99.90;;;;;;5016906;28;20531;-81
2022/04/11 07:55:11;;;;;;;10.13;6.57;;;5.50;99.90;;;;;;5017260;28;20064;-81
2022/04/11 07:57:37;;;;;;;8.87;6.57;;;5.60;99.90;;;;;;5031996;28;20045;-81
2022/04/11 08:00:06;;;;;;;10.13;6.50;;;5.70;99.90;;;;;;5033836;28;20079;-81
2022/04/11 08:02:32;;;;;;;8.57;5.83;;;5.80;99.90;;;;;;5031475;28;20111;-81
2022/04/11 08:05:01;;;;;;;8.23;5.87;;;6.00;99.90;;;;;;5033457;28;20044;-81
2022/04/11 08:07:27;;;;;;;9.63;5.87;;;6.10;99.90;;;;;;5033138;28;20049;-81
2022/04/11 08:09:52;;;;;;;8.73;6.20;;;6.20;99.90;;;;;;5033350;28;20044;-81
2022/04/11 08:12:18;;;;;;;24.70;7.20;;;6.30;99.90;;;;;;5017611;28;20044;-81
2022/04/11 08:14:44;;;;;;;9.57;6.47;;;6.40;99.90;;;;;;5016434;28;20602;-81
2022/04/11 08:17:10;;;;;;;9.53;6.00;;;6.60;99.90;;;;;;5015579;28;20037;-81
2022/04/11 08:19:35;;;;;;;9.67;5.87;;;6.70;99.90;;;;;;5031826;28;20049;-81
2022/04/11 08:22:01;;;;;;;8.00;6.37;;;6.80;99.90;;;;;;5014997;28;20064;-82
2022/04/11 08:24:27;;;;;;;10.97;6.67;;;6.90;99.90;;;;;;5015755;28;20127;-82
2022/04/11 08:26:53;;;;;;;7.80;5.93;;;7.10;99.90;;;;;;5032109;28;20044;-82
2022/04/11 08:29:18;;;;;;;9.57;6.13;;;7.20;99.90;;;;;;5000152;28;20045;-81
2022/04/11 08:31:44;;;;;;;8.23;5.97;;;7.40;99.90;;;;;;5015399;28;20041;-81
2022/04/11 08:34:10;;;;;;;11.70;7.00;;;7.50;99.90;;;;;;5017231;28;20509;-81
2022/04/11 08:36:36;;;;;;;9.40;5.97;;;7.70;99.90;;;;;;5017225;28;20064;-82
2022/04/11 08:39:02;;;;;;;12.10;6.60;;;7.90;99.90;;;;;;5000355;28;20045;-82
2022/04/11 08:41:33;;;;;;;10.93;6.13;;;8.00;99.90;;;;;;5033046;28;20711;-81
2022/04/11 08:44:01;;;;;;;9.33;6.67;;;8.00;99.90;;;;;;5032413;28;20048;-82
2022/04/11 08:46:29;;;;;;;7.73;6.10;;;8.20;99.90;;;;;;5047561;28;20041;-83
2022/04/11 08:48:55;;;;;;;9.83;6.67;;;8.20;99.90;;;;;;5014992;28;20088;-82
2022/04/11 08:51:21;;;;;;;10.70;6.50;;;8.30;99.90;;;;;;5015891;28;20492;-83
2022/04/11 08:53:47;;;;;;;8.50;6.40;;;8.50;99.90;;;;;;5001386;28;20080;-78
2022/04/11 08:56:13;;;;;;;10.03;6.53;;;8.60;99.90;;;;;;5019666;28;20060;-82
2022/04/11 08:58:39;;;;;;;7.80;6.47;;;8.80;99.90;;;;;;5020289;28;20142;-83
2022/04/11 09:01:05;;;;;;;8.10;6.40;;;9.00;99.90;;;;;;5018362;28;20048;-83
2022/04/11 09:03:30;;;;;;;12.23;6.30;;;9.10;99.90;;;;;;5001852;28;20064;-83
2022/04/11 09:06:07;;;;;;;10.30;6.00;;;9.10;99.90;;;;;;5018170;28;20092;-82
2022/04/11 09:08:38;;;;;;;11.17;6.07;;;9.30;99.90;;;;;;5051011;28;20074;-82
2022/04/11 09:11:04;;;;;;;7.00;5.60;;;9.50;99.90;;;;;;5034988;28;20059;-83
2022/04/11 09:13:47;;;;;;;12.03;6.27;;;9.60;99.90;;;;;;5049826;28;20045;-83
2022/04/11 09:16:13;;;;;;;9.80;5.60;;;9.80;99.90;;;;;;5019610;28;20048;-83
2022/04/11 09:18:50;;;;;;;9.40;5.83;;;9.90;99.90;;;;;;5035983;28;20083;-83
2022/04/11 09:21:16;;;;;;;10.17;5.73;;;10.10;99.90;;;;;;5017468;28;20037;-83
2022/04/11 09:23:42;;;;;;;10.40;5.97;;;10.30;99.90;;;;;;5035561;28;20033;-83
2022/04/11 09:26:38;;;;;;;7.30;4.63;;;10.30;99.90;;;;;;5049284;28;20059;-82
2022/04/11 09:29:04;;;;;;;7.80;5.07;;;10.30;99.90;;;;;;5033286;28;20537;-83
2022/04/11 09:31:31;;;;;;;6.70;4.60;;;10.40;99.90;;;;;;5019412;28;20068;-83
2022/04/11 09:33:58;;;;;;;10.17;4.60;;;10.40;99.90;;;;;;5031235;28;20149;-83
2022/04/11 09:36:42;;;;;;;9.57;4.00;;;10.50;99.90;;;;;;5019489;28;20075;-83
2022/04/11 09:39:08;;;;;;;6.50;3.10;;;10.60;99.90;;;;;;5032623;28;20047;-83
2022/04/11 09:41:34;;;;;;;6.00;3.93;;;10.60;99.90;;;;;;5019062;28;21850;-83
2022/04/11 09:44:28;;;;;;;7.37;3.70;;;10.70;99.90;;;;;;5035172;28;20068;-83
2022/04/11 09:47:05;;;;;;;7.43;4.47;;;10.80;99.90;;;;;;5037945;28;20154;-83
2022/04/11 09:49:31;;;;;;;4.87;4.33;;;10.90;99.90;;;;;;5051168;28;20045;-82
2022/04/11 09:52:15;;;;;;;5.73;4.57;;;11.10;99.90;;;;;;5021616;28;20092;-82
2022/04/11 09:54:44;;;;;;;4.67;3.40;;;11.20;99.90;;;;;;5021824;28;20048;-83
2022/04/11 09:57:15;;;;;;;8.17;4.73;;;11.40;99.90;;;;;;5036820;28;20048;-82
2022/04/11 09:59:41;;;;;;;5.37;4.00;;;11.50;99.90;;;;;;5021683;28;20045;-82
2022/04/11 10:02:11;;;;;;;6.73;3.77;;;11.50;99.90;;;;;;5037353;28;20044;-82
2022/04/11 10:04:39;;;;;;;9.93;4.23;;;11.70;99.90;;;;;;5037451;28;20266;-83
2022/04/11 10:07:11;;;;;;;6.03;4.10;;;11.70;99.90;;;;;;5037110;28;20044;-82
2022/04/11 10:09:41;;;;;;;5.43;3.67;;;11.90;99.90;;;;;;5030274;28;20074;-82
2022/04/11 10:12:08;;;;;;;3.80;3.40;;;11.90;99.90;;;;;;5034680;28;20044;-81
2022/04/11 10:14:34;;;;;;;7.33;3.30;;;12.00;99.90;;;;;;5037612;28;20079;-82
2022/04/11 10:17:02;;;;;;;5.90;3.63;;;12.00;99.90;;;;;;5037330;28;20051;-81
2022/04/11 10:19:33;;;;;;;4.03;3.20;;;12.10;99.90;;;;;;5038055;28;20044;-81
2022/04/11 10:22:04;;;;;;;4.93;3.17;;;12.20;99.90;;;;;;5019202;28;20082;-82
2022/04/11 10:24:33;;;;;;;4.43;2.70;;;12.30;97.30;;;;;;5038276;28;20029;-82
2022/04/11 10:27:32;;;;;;;7.83;3.13;;;12.30;98.90;;;;;;5036841;28;20067;-82
2022/04/11 10:29:59;;;;;;;3.90;3.00;;;12.40;86.50;;;;;;4995937;28;20045;-82
2022/04/11 10:32:27;;;;;;;3.47;2.90;;;12.30;94.70;;;;;;5037972;28;20059;-82
2022/04/11 10:34:55;;;;;;;5.90;3.13;;;12.40;95.00;;;;;;5039156;28;20055;-82
2022/04/11 10:37:29;;;;;;;5.77;2.40;;;12.40;93.10;;;;;;5053212;28;20045;-82
2022/04/11 10:40:16;;;;;;;5.03;2.83;;;12.40;90.20;;;;;;5052901;28;20048;-82
2022/04/11 10:43:05;;;;;;;4.93;2.80;;;12.50;81.80;;;;;;5053209;28;20059;-82
2022/04/11 10:45:58;;;;;;;6.57;2.70;;;12.60;80.70;;;;;;5052318;28;20048;-79
2022/04/11 10:48:56;;;;;;;4.80;3.03;;;12.70;80.50;;;;;;5042299;28;20056;-82
2022/04/11 10:51:22;;;;;;;3.60;2.67;;;12.80;76.40;;;;;;5033681;28;20079;-82
2022/04/11 10:54:21;;;;;;;4.43;2.83;;;12.90;83.50;;;;;;5003144;28;20041;-82
2022/04/11 10:56:55;;;;;;;5.43;2.90;;;13.00;73.70;;;;;;5037458;28;20408;-82
2022/04/11 10:59:28;;;;;;;3.80;2.90;;;13.20;78.80;;;;;;5055326;28;20036;-82
2022/04/11 11:01:57;;;;;;;4.53;3.30;;;13.20;75.70;;;;;;5036835;28;20125;-82
2022/04/11 11:04:27;;;;;;;5.70;3.17;;;13.20;73.20;;;;;;5036393;28;20054;-81
2022/04/11 11:07:23;;;;;;;5.83;3.13;;;13.20;73.50;;;;;;5051475;28;20683;-83
2022/04/11 11:09:54;;;;;;;6.47;3.30;;;13.20;72.90;;;;;;5034630;28;20052;-79
2022/04/11 11:12:21;;;;;;;4.93;3.03;;;13.30;73.30;;;;;;5054110;28;20044;-83
2022/04/11 11:14:47;;;;;;;4.57;2.90;;;13.40;74.70;;;;;;5018658;28;20049;-84
2022/04/11 11:17:13;;;;;;;4.60;3.13;;;13.50;74.00;;;;;;5023076;28;20047;-82
2022/04/11 11:20:03;;;;;;;5.23;3.20;;;13.50;73.50;;;;;;5019593;28;20407;-82
2022/04/11 11:22:51;;;;;;;5.97;3.20;;;13.60;66.50;;;;;;5036869;28;20802;-82
2022/04/11 11:25:18;;;;;;;5.37;3.50;;;13.60;70.50;;;;;;5051968;28;20052;-82
2022/04/11 11:27:45;;;;;;;7.57;3.83;;;13.70;70.40;;;;;;5018639;28;20275;-82
2022/04/11 11:30:12;;;;;;;6.90;3.63;;;13.70;68.50;;;;;;5036806;28;20056;-82
2022/04/11 11:32:40;;;;;;;6.33;3.90;;;13.70;67.70;;;;;;5034305;28;20048;-82
2022/04/11 11:35:09;;;;;;;7.20;4.20;;;13.70;67.00;;;;;;5035385;28;20799;-82
2022/04/11 11:37:35;;;;;;;5.97;4.30;;;13.80;66.00;;;;;;5020822;28;20106;-82
2022/04/11 11:40:05;;;;;;;6.13;5.07;;;13.80;66.80;;;;;;5035951;28;20047;-82
2022/04/11 11:42:36;;;;;;;7.07;4.43;;;13.90;64.30;;;;;;5019484;28;20532;-82
2022/04/11 11:45:03;;;;;;;5.67;4.37;;;14.00;65.20;;;;;;5051671;28;20083;-82
2022/04/11 11:47:29;;;;;;;6.47;4.63;;;14.00;64.60;;;;;;5052238;28;20045;-82
2022/04/11 11:50:06;;;;;;;8.07;4.90;;;14.00;64.40;;;;;;5036399;28;20041;-82
2022/04/11 11:52:33;;;;;;;8.77;4.97;;;13.90;61.30;;;;;;5020256;28;20504;-82
2022/04/11 11:54:59;;;;;;;6.67;4.87;;;13.90;63.60;;;;;;5034504;28;20060;-82
2022/04/11 11:57:30;;;;;;;8.80;5.47;;;14.00;64.50;;;;;;5053188;28;20052;-82
2022/04/11 12:00:03;;;;;;;7.33;5.20;;;14.20;64.00;;;;;;5068722;28;20098;-82
2022/04/11 12:05:26;;;;;;;8.40;5.63;;;14.10;62.80;;;;;;5048982;28;20049;-82
2022/04/11 12:08:14;;;;;;;7.50;4.97;;;14.10;64.10;;;;;;5053033;28;20045;-82
2022/04/11 12:10:47;;;;;;;8.33;5.50;;;14.20;63.70;;;;;;5032039;28;20040;-82
2022/04/11 12:13:24;;;;;;;7.43;5.27;;;14.30;64.40;;;;;;5052367;28;20052;-82
2022/04/11 12:15:50;;;;;;;8.50;5.30;;;14.40;63.40;;;;;;5033169;28;20050;-81
2022/04/11 12:18:15;;;;;;;9.07;6.00;;;14.50;64.10;;;;;;5017716;28;20044;-81
2022/04/11 12:20:43;;;;;;;7.13;5.70;;;14.40;63.00;;;;;;5033540;28;20125;-81
2022/04/11 12:23:12;;;;;;;7.60;5.77;;;14.30;62.20;;;;;;5034643;28;20432;-82
2022/04/11 12:25:50;;;;;;;8.53;6.13;;;14.30;61.30;;;;;;5068439;28;20078;-81
2022/04/11 12:28:24;;;;;;;9.27;5.93;;;14.30;60.90;;;;;;5050224;28;20117;-82
2022/04/11 12:31:02;;;;;;;10.00;6.63;;;14.30;60.90;;;;;;5025156;28;20048;-82
2022/04/11 12:33:33;;;;;;;11.13;5.97;;;14.30;59.70;;;;;;5060135;28;20135;-82
2022/04/11 12:36:12;;;;;;;8.57;5.63;;;14.40;60.60;;;;;;5033233;28;20057;-81
2022/04/11 12:39:03;;;;;;;10.37;5.90;;;14.50;59.70;;;;;;5050808;28;20048;-81
2022/04/11 12:41:41;;;;;;;10.53;6.10;;;14.50;57.30;;;;;;5034843;28;20450;-79
2022/04/11 12:44:21;;;;;;;9.33;5.57;;;14.50;57.30;;;;;;5034094;28;20048;-82
2022/04/11 12:46:55;;;;;;;8.00;6.03;;;14.60;59.40;;;;;;5033253;28;20044;-82
2022/04/11 12:49:22;;;;;;;8.97;6.17;;;14.70;59.50;;;;;;5047451;28;20108;-82
2022/04/11 12:52:04;;;;;;;8.87;6.30;;;14.70;59.60;;;;;;5019649;28;20074;-81
2022/04/11 12:54:44;;;;;;;8.70;6.15;;;14.90;59.20;;;;;;5050743;28;20064;-82
2022/04/11 12:57:13;;;;;;;8.97;7.37;;;14.90;59.60;;;;;;5032971;28;20076;-82
2022/04/11 12:59:41;;;;;;;9.97;6.73;;;15.00;60.80;;;;;;5031255;28;20044;-82
2022/04/11 13:02:09;;;;;;;10.90;7.20;;;15.00;60.40;;;;;;5051906;28;20439;-82